Terminal Aerodrome Forecast
Issued by NWS

Home | Current Version | Previous Version | Text Only | Print | Product List | Glossary On
Versions: 1 2 3 4 5 6 7 8 9 10 11 12 13 14
898
FTUS43 KAPX 030520
TAFTVC
TAF
KTVC 030520Z 0306/0406 31007KT P6SM -SHRASN BKN016 OVC022
     FM030900 30006KT P6SM VCSH OVC015
     FM031900 30006KT P6SM OVC021
     FM040000 00000KT P6SM BKN025
     FM040400 VRB03KT P6SM OVC035=

USA.gov is the U.S. government's official web portal to all federal, state and local government web resources and services.